sensor_id;sensor_type;location;lat;lon;timestamp;pressure;altitude;pressure_sealevel;temperature;humidity
65054;BME280;51639;47.828;35.038;2023-04-05T00:11:52;99573.69;;;14.36;100.00
65054;BME280;51639;47.828;35.038;2023-04-05T00:26:56;99541.97;;;14.20;100.00
65054;BME280;51639;47.828;35.038;2023-04-05T00:41:58;99541.53;;;14.13;100.00
65054;BME280;51639;47.828;35.038;2023-04-05T00:57:02;99528.78;;;14.00;100.00
65054;BME280;51639;47.828;35.038;2023-04-05T01:12:08;99506.66;;;13.71;100.00
65054;BME280;51639;47.828;35.038;2023-04-05T01:27:30;99503.34;;;13.67;100.00
65054;BME280;51639;47.828;35.038;2023-04-05T01:42:37;99485.56;;;13.53;100.00
65054;BME280;51639;47.828;35.038;2023-04-05T01:57:39;99485.13;;;13.46;100.00
65054;BME280;51639;47.828;35.038;2023-04-05T02:12:41;99439.22;;;13.35;100.00
65054;BME280;51639;47.828;35.038;2023-04-05T02:27:43;99439.94;;;13.26;100.00
65054;BME280;51639;47.828;35.038;2023-04-05T02:42:45;99402.69;;;13.23;100.00
65054;BME280;51639;47.828;35.038;2023-04-05T02:57:47;99348.91;;;13.06;100.00
65054;BME280;51639;47.828;35.038;2023-04-05T03:12:48;99323.03;;;13.10;100.00
65054;BME280;51639;47.828;35.038;2023-04-05T03:27:52;99320.94;;;13.42;100.00
65054;BME280;51639;47.828;35.038;2023-04-05T03:42:54;99335.13;;;13.73;100.00
65054;BME280;51639;47.828;35.038;2023-04-05T03:57:55;99326.91;;;13.82;100.00
65054;BME280;51639;47.828;35.038;2023-04-05T04:12:57;99321.94;;;13.72;100.00
65054;BME280;51639;47.828;35.038;2023-04-05T04:28:00;99304.53;;;14.11;100.00
65054;BME280;51639;47.828;35.038;2023-04-05T04:43:02;99302.53;;;14.21;100.00
65054;BME280;51639;47.828;35.038;2023-04-05T04:58:04;99302.19;;;14.28;100.00
65054;BME280;51639;47.828;35.038;2023-04-05T05:13:10;99297.88;;;14.45;100.00
65054;BME280;51639;47.828;35.038;2023-04-05T05:28:12;99267.47;;;15.00;100.00
65054;BME280;51639;47.828;35.038;2023-04-05T05:43:14;99290.38;;;15.56;100.00
65054;BME280;51639;47.828;35.038;2023-04-05T05:58:16;99277.31;;;15.51;100.00
65054;BME280;51639;47.828;35.038;2023-04-05T06:13:21;99259.06;;;15.57;100.00
65054;BME280;51639;47.828;35.038;2023-04-05T06:28:27;99231.00;;;16.26;100.00
65054;BME280;51639;47.828;35.038;2023-04-05T06:43:32;99226.00;;;16.86;100.00
65054;BME280;51639;47.828;35.038;2023-04-05T06:58:39;99224.78;;;17.13;100.00
65054;BME280;51639;47.828;35.038;2023-04-05T07:13:50;99213.28;;;17.66;100.00
65054;BME280;51639;47.828;35.038;2023-04-05T07:28:56;99196.72;;;17.55;100.00
65054;BME280;51639;47.828;35.038;2023-04-05T07:44:05;99203.94;;;18.86;100.00
65054;BME280;51639;47.828;35.038;2023-04-05T07:59:07;99188.38;;;18.71;100.00
65054;BME280;51639;47.828;35.038;2023-04-05T08:14:09;99205.69;;;18.29;100.00
65054;BME280;51639;47.828;35.038;2023-04-05T08:29:11;99220.88;;;17.82;100.00
65054;BME280;51639;47.828;35.038;2023-04-05T08:44:16;99248.16;;;17.34;100.00
65054;BME280;51639;47.828;35.038;2023-04-05T08:59:22;99262.19;;;16.69;100.00
65054;BME280;51639;47.828;35.038;2023-04-05T09:14:25;99264.91;;;16.14;100.00
65054;BME280;51639;47.828;35.038;2023-04-05T09:29:29;99327.72;;;15.88;100.00
65054;BME280;51639;47.828;35.038;2023-04-05T09:45:00;99317.13;;;15.52;100.00
65054;BME280;51639;47.828;35.038;2023-04-05T10:00:19;99311.66;;;14.75;100.00
65054;BME280;51639;47.828;35.038;2023-04-05T10:15:23;99295.66;;;15.06;100.00
65054;BME280;51639;47.828;35.038;2023-04-05T10:30:28;99270.25;;;14.91;100.00
65054;BME280;51639;47.828;35.038;2023-04-05T10:45:35;99256.44;;;14.71;100.00
65054;BME280;51639;47.828;35.038;2023-04-05T11:00:39;99241.41;;;14.90;100.00
65054;BME280;51639;47.828;35.038;2023-04-05T11:15:42;99221.16;;;14.82;100.00
65054;BME280;51639;47.828;35.038;2023-04-05T11:45:49;99249.56;;;15.14;100.00
65054;BME280;51639;47.828;35.038;2023-04-05T12:01:11;99239.59;;;15.25;100.00
65054;BME280;51639;47.828;35.038;2023-04-05T12:16:13;99243.72;;;15.35;100.00
65054;BME280;51639;47.828;35.038;2023-04-05T12:31:16;99244.31;;;15.40;100.00
65054;BME280;51639;47.828;35.038;2023-04-05T12:46:18;99255.81;;;15.44;100.00
65054;BME280;51639;47.828;35.038;2023-04-05T13:01:20;99259.94;;;15.39;100.00
65054;BME280;51639;47.828;35.038;2023-04-05T13:16:24;99242.41;;;15.16;100.00
65054;BME280;51639;47.828;35.038;2023-04-05T13:31:28;99221.84;;;15.35;100.00
65054;BME280;51639;47.828;35.038;2023-04-05T13:46:30;99225.06;;;15.49;100.00
65054;BME280;51639;47.828;35.038;2023-04-05T14:01:37;99227.53;;;15.47;100.00
65054;BME280;51639;47.828;35.038;2023-04-05T14:16:39;99229.59;;;15.22;100.00
65054;BME280;51639;47.828;35.038;2023-04-05T14:31:42;99225.41;;;14.83;100.00
65054;BME280;51639;47.828;35.038;2023-04-05T14:46:45;99255.00;;;14.37;100.00
65054;BME280;51639;47.828;35.038;2023-04-05T15:01:53;99243.75;;;14.11;100.00
65054;BME280;51639;47.828;35.038;2023-04-05T15:17:19;99256.81;;;13.64;100.00
65054;BME280;51639;47.828;35.038;2023-04-05T15:32:31;99265.97;;;13.34;100.00
65054;BME280;51639;47.828;35.038;2023-04-05T15:47:34;99267.47;;;13.26;100.00
65054;BME280;51639;47.828;35.038;2023-04-05T16:02:40;99273.41;;;13.15;100.00
65054;BME280;51639;47.828;35.038;2023-04-05T16:17:42;99272.63;;;12.87;100.00
65054;BME280;51639;47.828;35.038;2023-04-05T16:32:45;99277.63;;;12.98;100.00
65054;BME280;51639;47.828;35.038;2023-04-05T16:47:47;99272.78;;;12.84;100.00
65054;BME280;51639;47.828;35.038;2023-04-05T17:02:50;99286.84;;;12.82;100.00
65054;BME280;51639;47.828;35.038;2023-04-05T17:17:52;99308.00;;;12.78;100.00
65054;BME280;51639;47.828;35.038;2023-04-05T17:32:54;99316.22;;;12.87;100.00
65054;BME280;51639;47.828;35.038;2023-04-05T17:47:56;99311.84;;;12.99;100.00
65054;BME280;51639;47.828;35.038;2023-04-05T18:03:04;99337.25;;;13.05;100.00
65054;BME280;51639;47.828;35.038;2023-04-05T18:18:21;99308.53;;;13.22;100.00
65054;BME280;51639;47.828;35.038;2023-04-05T18:33:23;99311.81;;;13.54;100.00
65054;BME280;51639;47.828;35.038;2023-04-05T18:48:25;99313.94;;;13.59;100.00
65054;BME280;51639;47.828;35.038;2023-04-05T19:03:27;99303.94;;;13.56;100.00
65054;BME280;51639;47.828;35.038;2023-04-05T19:18:29;99293.97;;;13.44;100.00
65054;BME280;51639;47.828;35.038;2023-04-05T19:33:31;99290.91;;;13.51;100.00
65054;BME280;51639;47.828;35.038;2023-04-05T19:48:35;99309.94;;;13.78;100.00
65054;BME280;51639;47.828;35.038;2023-04-05T20:03:38;99309.38;;;13.65;100.00
65054;BME280;51639;47.828;35.038;2023-04-05T20:18:46;99324.53;;;13.66;100.00
65054;BME280;51639;47.828;35.038;2023-04-05T20:33:53;99318.78;;;13.55;100.00
65054;BME280;51639;47.828;35.038;2023-04-05T20:48:55;99328.22;;;13.45;100.00
65054;BME280;51639;47.828;35.038;2023-04-05T21:03:58;99327.00;;;13.27;100.00
65054;BME280;51639;47.828;35.038;2023-04-05T21:19:00;99323.78;;;13.11;100.00
65054;BME280;51639;47.828;35.038;2023-04-05T21:34:02;99335.19;;;13.18;100.00
65054;BME280;51639;47.828;35.038;2023-04-05T21:49:04;99350.47;;;13.16;100.00
65054;BME280;51639;47.828;35.038;2023-04-05T22:04:06;99353.91;;;13.07;100.00
65054;BME280;51639;47.828;35.038;2023-04-05T22:19:08;99362.03;;;12.80;100.00
65054;BME280;51639;47.828;35.038;2023-04-05T22:34:13;99357.44;;;12.49;100.00
65054;BME280;51639;47.828;35.038;2023-04-05T22:49:15;99397.72;;;12.33;100.00
65054;BME280;51639;47.828;35.038;2023-04-05T23:04:17;99393.22;;;12.08;100.00
65054;BME280;51639;47.828;35.038;2023-04-05T23:19:19;99403.16;;;12.02;100.00
65054;BME280;51639;47.828;35.038;2023-04-05T23:34:21;99400.06;;;11.90;100.00
65054;BME280;51639;47.828;35.038;2023-04-05T23:49:23;99400.91;;;11.78;100.00
